Time;durP1;ratioP1;P1;durP2;ratioP2;P2;SDS_P1;SDS_P2;PMS_P1;PMS_P2;Temp;Humidity;BMP_temperature;BMP_pressure;BME280_temperature;BME280_humidity;BME280_pressure;Samples;Min_cycle;Max_cycle;Signal;HPM_P1;HPM_P2
2022/10/20 00:03:37;;;;;;;17.77;10.07;;;;;;;7.99;100.00;101410.53;10492644;28;20059;-71
2022/10/20 00:08:39;;;;;;;19.38;10.57;;;;;;;7.89;100.00;101395.16;10494014;28;20098;-70
2022/10/20 00:13:45;;;;;;;21.25;11.80;;;;;;;7.97;100.00;101396.69;10493978;28;20106;-72
2022/10/20 00:18:47;;;;;;;23.35;10.80;;;;;;;7.96;100.00;101394.13;10495658;28;20106;-70
2022/10/20 00:23:50;;;;;;;20.88;12.20;;;;;;;8.01;100.00;101397.50;10502190;28;20052;-70
2022/10/20 00:28:55;;;;;;;21.25;11.10;;;;;;;7.96;100.00;101399.31;10501752;28;20083;-69
2022/10/20 00:33:57;;;;;;;18.42;11.25;;;;;;;8.04;100.00;101387.00;10499221;28;20496;-70
2022/10/20 00:39:00;;;;;;;;;;;;;;;8.04;100.00;101380.97;10502158;28;20086;-71
2022/10/20 00:44:51;;;;;;;25.95;13.27;;;;;;;8.11;100.00;101366.94;10500972;28;19939;-71
2022/10/20 00:49:53;;;;;;;20.40;11.77;;;;;;;8.07;100.00;101360.06;10501111;28;20048;-69
2022/10/20 00:54:55;;;;;;;20.25;11.77;;;;;;;8.23;100.00;101360.56;10501319;28;20048;-70
2022/10/20 00:59:58;;;;;;;21.45;12.07;;;;;;;8.23;100.00;101361.44;10500562;28;20057;-69
2022/10/20 01:05:00;;;;;;;22.50;12.23;;;;;;;8.24;100.00;101362.28;10498948;28;20083;-69
2022/10/20 01:10:03;;;;;;;;;;;;;;;8.23;100.00;101347.56;10500386;28;20084;-70
2022/10/20 01:15:18;;;;;;;;;;;;;;;8.17;100.00;101325.19;10500271;28;20346;-70
2022/10/20 01:21:11;;;;;;;17.27;11.02;;;;;;;8.23;100.00;101299.03;10499933;28;19962;-70
2022/10/20 01:26:42;;;;;;;17.27;11.57;;;;;;;8.24;100.00;101294.66;10499809;28;20048;-71
2022/10/20 01:31:57;;;;;;;23.63;12.23;;;;;;;8.28;100.00;101274.66;10498980;28;20474;-70
2022/10/20 01:37:06;;;;;;;20.83;12.35;;;;;;;8.33;100.00;101278.84;10496747;28;20056;-70
2022/10/20 01:42:16;;;;;;;24.30;12.32;;;;;;;8.33;100.00;101275.38;10498994;28;20048;-69
2022/10/20 01:47:22;;;;;;;22.85;12.65;;;;;;;8.35;100.00;101282.25;10498839;28;20048;-69
2022/10/20 01:52:27;;;;;;;24.58;12.68;;;;;;;8.21;100.00;101289.56;10498642;28;20112;-68
2022/10/20 01:57:45;;;;;;;24.17;13.15;;;;;;;8.28;100.00;101285.06;10498649;28;20055;-70
2022/10/20 02:03:28;;;;;;;28.00;13.10;;;;;;;8.27;100.00;101283.34;10495500;28;20052;-71
2022/10/20 02:08:39;;;;;;;26.80;13.40;;;;;;;8.22;100.00;101270.47;10497748;28;20393;-70
2022/10/20 02:13:42;;;;;;;23.95;13.95;;;;;;;8.04;100.00;101264.00;10497394;28;20469;-70
2022/10/20 02:18:48;;;;;;;26.75;13.15;;;;;;;7.92;100.00;101260.81;10497915;28;20102;-70
2022/10/20 02:23:52;;;;;;;34.03;14.68;;;;;;;7.91;100.00;101247.84;10497076;28;20057;-70
2022/10/20 02:29:00;;;;;;;26.65;14.75;;;;;;;7.68;100.00;101244.91;10497508;28;20074;-69
2022/10/20 02:34:04;;;;;;;29.30;14.55;;;;;;;7.57;100.00;101231.34;10494516;28;20048;-71
2022/10/20 02:39:06;;;;;;;27.17;13.85;;;;;;;7.51;100.00;101213.28;10496792;28;20052;-70
2022/10/20 02:44:08;;;;;;;26.42;14.27;;;;;;;7.47;100.00;101202.97;10496215;28;20044;-70
2022/10/20 02:49:11;;;;;;;23.73;15.20;;;;;;;7.41;100.00;101200.53;10496099;28;20054;-69
2022/10/20 02:54:13;;;;;;;27.48;14.93;;;;;;;7.44;100.00;101178.81;10495989;28;20121;-70
2022/10/20 02:59:17;;;;;;;30.48;16.02;;;;;;;7.49;100.00;101173.53;10496052;28;20127;-69
2022/10/20 03:04:21;;;;;;;35.28;15.85;;;;;;;7.40;100.00;101146.88;10493872;28;20446;-70
2022/10/20 03:09:22;;;;;;;40.08;16.40;;;;;;;7.35;100.00;101153.91;10495641;28;20106;-69
2022/10/20 03:14:24;;;;;;;32.47;15.57;;;;;;;7.46;100.00;101144.13;10495538;28;20082;-70
2022/10/20 03:19:27;;;;;;;38.88;17.73;;;;;;;7.58;100.00;101134.31;10496075;28;20054;-70
2022/10/20 03:24:29;;;;;;;35.03;17.05;;;;;;;7.70;100.00;101128.81;10495608;28;20101;-69
2022/10/20 03:29:30;;;;;;;38.28;18.45;;;;;;;7.65;100.00;101124.63;10495418;28;20056;-69
2022/10/20 03:34:33;;;;;;;38.88;17.83;;;;;;;7.66;100.00;101116.81;10492416;28;20480;-70
2022/10/20 03:39:35;;;;;;;36.75;16.70;;;;;;;7.64;100.00;101118.59;10494740;28;20083;-68
2022/10/20 03:44:37;;;;;;;43.78;17.10;;;;;;;7.70;100.00;101108.03;10494704;28;20044;-69
2022/10/20 03:49:40;;;;;;;46.78;19.45;;;;;;;7.88;100.00;101110.19;10495067;28;20075;-69
2022/10/20 03:54:43;;;;;;;41.92;18.13;;;;;;;7.82;100.00;101090.41;10497905;28;20466;-69
2022/10/20 03:59:45;;;;;;;43.65;18.27;;;;;;;7.90;100.00;101098.84;10502959;28;20059;-69
2022/10/20 04:04:48;;;;;;;52.35;20.48;;;;;;;8.03;100.00;101090.72;10500689;28;20068;-70
2022/10/20 04:09:50;;;;;;;48.97;21.85;;;;;;;8.46;100.00;101096.44;10502472;28;20083;-69
2022/10/20 04:14:51;;;;;;;31.27;14.98;;;;;;;9.08;100.00;101083.31;10502580;28;20511;-68
2022/10/20 04:19:55;;;;;;;38.28;18.27;;;;;;;9.05;100.00;101073.00;10502181;28;20393;-70
2022/10/20 04:24:56;;;;;;;40.97;18.27;;;;;;;9.09;100.00;101072.00;10501770;28;20071;-71
2022/10/20 04:29:58;;;;;;;31.02;15.73;;;;;;;9.38;100.00;101054.56;10501945;28;20675;-70
2022/10/20 04:35:01;;;;;;;33.63;16.92;;;;;;;9.33;100.00;101046.03;10499314;28;20056;-70
2022/10/20 04:40:06;;;;;;;31.20;16.50;;;;;;;9.44;100.00;101045.69;10501195;28;20044;-70
2022/10/20 04:45:09;;;;;;;26.50;15.85;;;;;;;9.44;100.00;101049.13;10500931;28;20415;-70
2022/10/20 04:50:13;;;;;;;26.15;15.43;;;;;;;9.47;100.00;101028.19;10500710;28;20076;-70
2022/10/20 04:55:15;;;;;;;23.58;15.35;;;;;;;9.47;100.00;101023.00;10500603;28;20404;-70
2022/10/20 05:00:16;;;;;;;28.35;15.93;;;;;;;9.57;100.00;101012.22;10500716;28;20043;-71
2022/10/20 05:05:19;;;;;;;20.88;10.02;;;;;;;9.81;100.00;101025.31;10498219;28;20519;-72
2022/10/20 05:10:21;;;;;;;24.35;15.38;;;;;;;9.78;100.00;101028.84;10500071;28;20150;-70
2022/10/20 05:15:23;;;;;;;28.50;13.68;;;;;;;9.70;100.00;101029.16;10500159;28;20098;-70
2022/10/20 05:20:27;;;;;;;21.70;13.57;;;;;;;9.60;100.00;101005.19;10499836;28;20488;-71
2022/10/20 05:25:29;;;;;;;25.08;14.88;;;;;;;9.46;100.00;100984.81;10500270;28;20052;-72
2022/10/20 05:30:34;;;;;;;24.33;14.77;;;;;;;9.58;100.00;101008.75;10499939;28;20095;-72
2022/10/20 05:35:37;;;;;;;28.45;15.85;;;;;;;9.37;100.00;101014.66;10498922;28;20113;-70
2022/10/20 05:40:38;;;;;;;26.70;14.10;;;;;;;9.53;100.00;101016.72;10500793;28;20467;-71
2022/10/20 05:45:40;;;;;;;24.55;14.82;;;;;;;9.27;100.00;100985.47;10501058;28;20044;-71
2022/10/20 05:50:44;;;;;;;26.35;16.33;;;;;;;9.17;100.00;100991.88;10502147;28;20480;-71
2022/10/20 05:55:46;;;;;;;20.67;14.23;;;;;;;9.20;100.00;100997.00;10499794;28;20068;-70
2022/10/20 06:00:51;;;;;;;30.42;15.15;;;;;;;9.30;100.00;101009.72;10498657;28;20044;-72
2022/10/20 06:05:58;;;;;;;24.42;14.85;;;;;;;9.32;100.00;100997.47;10496171;28;20397;-70
2022/10/20 06:11:05;;;;;;;22.58;14.90;;;;;;;9.33;100.00;100991.34;10497852;28;20136;-71
2022/10/20 06:16:09;;;;;;;24.17;13.93;;;;;;;9.23;100.00;100994.28;10497291;28;20102;-70
2022/10/20 06:21:17;;;;;;;25.65;14.02;;;;;;;9.24;100.00;101003.78;10497727;28;20068;-70
2022/10/20 06:26:22;;;;;;;27.08;15.75;;;;;;;9.43;100.00;101013.59;10498672;28;20482;-71
2022/10/20 06:31:27;;;;;;;26.63;14.15;;;;;;;9.68;100.00;101002.28;10498680;28;20049;-71
2022/10/20 06:36:30;;;;;;;16.70;12.65;;;;;;;9.78;100.00;100995.84;10496390;28;20044;-71
2022/10/20 06:41:34;;;;;;;19.05;13.30;;;;;;;9.91;100.00;100990.16;10498884;28;20488;-70
2022/10/20 06:46:37;;;;;;;20.63;13.88;;;;;;;9.93;100.00;100993.56;10498144;28;20052;-65
2022/10/20 06:51:41;;;;;;;22.42;15.20;;;;;;;9.97;100.00;100989.09;10497811;28;20070;-65
2022/10/20 06:56:43;;;;;;;14.77;9.98;;;;;;;10.03;100.00;100976.66;10472921;28;20041;-73
2022/10/20 07:01:45;;;;;;;19.65;13.10;;;;;;;10.12;100.00;100972.00;10494871;28;20048;-72
2022/10/20 07:06:48;;;;;;;19.45;13.88;;;;;;;10.12;100.00;100961.56;10485049;28;20113;-74
2022/10/20 07:11:53;;;;;;;18.88;13.48;;;;;;;10.18;100.00;100977.00;10453371;28;20073;-72
2022/10/20 07:16:54;;;;;;;27.90;13.30;;;;;;;10.30;100.00;100988.72;10493408;28;20471;-72
2022/10/20 07:21:57;;;;;;;17.33;13.10;;;;;;;10.40;100.00;100981.38;10495239;28;20049;-73
2022/10/20 07:26:59;;;;;;;18.38;12.93;;;;;;;10.52;100.00;100980.91;10495092;28;20056;-74
2022/10/20 07:32:01;;;;;;;22.35;12.70;;;;;;;10.66;100.00;100979.50;10494821;28;20057;-72
2022/10/20 07:37:04;;;;;;;21.33;13.73;;;;;;;10.78;100.00;100978.16;10492966;28;20093;-73
2022/10/20 07:42:05;;;;;;;17.75;12.38;;;;;;;10.81;100.00;100976.25;10495335;28;20098;-72
2022/10/20 07:47:07;;;;;;;21.90;11.48;;;;;;;10.90;100.00;100979.41;10494748;28;20057;-75
2022/10/20 07:52:11;;;;;;;14.52;11.63;;;;;;;11.13;100.00;100980.19;10493716;28;20044;-73
2022/10/20 07:57:13;;;;;;;16.90;11.75;;;;;;;11.06;100.00;100984.84;10472226;28;20075;-72
2022/10/20 08:02:15;;;;;;;16.00;12.00;;;;;;;11.19;100.00;100982.56;10452892;28;20079;-64
2022/10/20 08:07:19;;;;;;;;;;;;;;;11.62;100.00;100971.13;10450796;28;20049;-64
2022/10/20 08:12:21;;;;;;;18.52;12.45;;;;;;;11.51;100.00;100976.84;10452382;28;19920;-66
2022/10/20 08:17:22;;;;;;;15.40;10.80;;;;;;;11.50;100.00;100978.59;10452494;28;20045;-64
2022/10/20 08:22:26;;;;;;;24.33;12.32;;;;;;;11.68;100.00;100974.34;10460834;28;20416;-66
2022/10/20 08:27:27;;;;;;;17.45;12.32;;;;;;;11.79;100.00;100962.53;10452394;28;20058;-64
2022/10/20 08:32:29;;;;;;;18.58;13.23;;;;;;;11.78;100.00;100966.06;10452701;28;20106;-63
2022/10/20 08:37:33;;;;;;;16.52;12.55;;;;;;;11.85;100.00;100976.16;10451085;28;20065;-64
2022/10/20 08:42:43;;;;;;;15.68;11.93;;;;;;;11.85;100.00;100973.53;10461989;28;20101;-65
2022/10/20 08:47:47;;;;;;;15.85;11.68;;;;;;;12.91;100.00;100961.63;10501004;28;20056;-65
2022/10/20 08:52:57;;;;;;;14.15;11.48;;;;;;;13.23;100.00;100960.00;10500915;28;20105;-65
2022/10/20 08:58:04;;;;;;;15.18;10.60;;;;;;;14.04;100.00;100952.28;10483230;28;20519;-64
2022/10/20 09:03:17;;;;;;;10.00;8.00;;;;;;;13.12;100.00;100943.97;10415321;28;20080;-64
2022/10/20 09:08:24;;;;;;;13.95;10.65;;;;;;;13.19;100.00;100949.75;10417486;28;20429;-63
2022/10/20 09:13:33;;;;;;;14.80;10.68;;;;;;;13.30;100.00;100947.41;10417220;28;20112;-65
2022/10/20 09:18:35;;;;;;;15.55;11.13;;;;;;;12.94;100.00;100948.41;10417477;28;20079;-64
2022/10/20 09:23:40;;;;;;;;;;;;;;;12.85;100.00;100947.94;10417566;28;20063;-65
2022/10/20 09:28:42;;;;;;;17.45;10.85;;;;;;;12.81;100.00;100941.16;10417214;28;20492;-64
2022/10/20 09:33:45;;;;;;;;;;;;;;;12.92;100.00;100939.75;10415899;28;20049;-65
2022/10/20 09:38:51;;;;;;;16.00;10.88;;;;;;;13.11;100.00;100948.38;10415968;28;20322;-65
2022/10/20 09:43:58;;;;;;;19.55;10.73;;;;;;;13.25;100.00;100959.91;10416486;28;20049;-65
2022/10/20 09:49:00;;;;;;;10.80;8.27;;;;;;;13.14;100.00;100953.44;10422132;28;20496;-66
2022/10/20 09:54:06;;;;;;;;;;;;;;;13.17;100.00;100935.91;10498852;28;20105;-63
2022/10/20 09:59:20;;;;;;;13.30;10.88;;;;;;;13.18;100.00;100942.81;10473973;28;19921;-63
2022/10/20 10:04:34;;;;;;;15.57;10.07;;;;;;;13.25;100.00;100941.56;10454642;28;20102;-61
2022/10/20 10:09:38;;;;;;;17.15;11.30;;;;;;;13.31;100.00;100938.63;10455881;28;20087;-64
2022/10/20 10:14:53;;;;;;;17.23;11.23;;;;;;;13.30;100.00;100941.31;10456402;28;20057;-65
2022/10/20 10:19:55;;;;;;;18.15;11.98;;;;;;;13.10;100.00;100941.44;10455928;28;20505;-64
2022/10/20 10:25:01;;;;;;;22.33;12.15;;;;;;;12.85;100.00;100921.75;10456173;28;20492;-65
2022/10/20 10:30:28;;;;;;;15.23;11.82;;;;;;;12.79;100.00;100916.81;10455477;28;20512;-64
2022/10/20 10:35:38;;;;;;;19.55;11.82;;;;;;;12.69;100.00;100910.38;10452978;28;20424;-65
2022/10/20 10:40:57;;;;;;;17.95;11.90;;;;;;;12.49;100.00;100899.94;10455124;28;20195;-62
2022/10/20 10:46:06;;;;;;;17.88;12.75;;;;;;;12.43;100.00;100909.88;10455626;28;20052;-63
2022/10/20 10:51:20;;;;;;;21.88;13.05;;;;;;;12.45;100.00;100913.25;10475724;28;20071;-63
2022/10/20 10:56:35;;;;;;;20.50;13.43;;;;;;;12.38;100.00;100917.94;10496085;28;20078;-63
2022/10/20 11:02:13;;;;;;;20.70;13.23;;;;;;;12.35;100.00;100903.25;10461378;28;20099;-64
2022/10/20 11:07:32;;;;;;;16.25;10.25;;;;;;;12.33;100.00;100893.78;10452527;28;20121;-65
2022/10/20 11:12:59;;;;;;;24.25;14.50;;;;;;;12.35;100.00;100869.22;10453673;28;20052;-64
2022/10/20 11:18:14;;;;;;;21.00;13.73;;;;;;;12.35;100.00;100871.84;10453707;28;20083;-63
2022/10/20 11:24:07;;;;;;;20.92;15.32;;;;;;;12.47;100.00;100874.78;10454026;28;20102;-64
2022/10/20 11:29:20;;;;;;;25.77;14.88;;;;;;;12.45;100.00;100871.38;10416754;28;20463;-64
2022/10/20 11:34:30;;;;;;;20.52;14.00;;;;;;;12.42;100.00;100850.63;10451282;28;20103;-66
2022/10/20 11:39:42;;;;;;;21.35;14.05;;;;;;;12.38;100.00;100833.38;10453546;28;20063;-63
2022/10/20 11:44:48;;;;;;;17.30;11.77;;;;;;;12.47;100.00;100823.28;10452917;28;20053;-65
2022/10/20 11:49:50;;;;;;;26.40;16.30;;;;;;;12.68;100.00;100824.88;10462780;28;20070;-64
2022/10/20 11:55:27;;;;;;;25.20;16.83;;;;;;;12.80;100.00;100832.06;10494212;28;20453;-66
2022/10/20 12:00:51;;;;;;;22.80;13.90;;;;;;;12.88;100.00;100831.69;10478858;28;20087;-63
2022/10/20 12:06:20;;;;;;;21.92;15.40;;;;;;;13.01;100.00;100827.47;10409383;28;20057;-63
2022/10/20 12:11:37;;;;;;;26.60;16.23;;;;;;;13.01;100.00;100822.25;10410795;28;20050;-63
2022/10/20 12:17:17;;;;;;;20.75;14.65;;;;;;;12.98;100.00;100817.19;10415540;28;20118;-64
2022/10/20 12:22:42;;;;;;;23.55;16.83;;;;;;;13.04;100.00;100821.25;10418988;28;20076;-63
2022/10/20 12:27:45;;;;;;;22.10;15.00;;;;;;;12.95;100.00;100817.34;10418491;28;20497;-66
2022/10/20 12:33:15;;;;;;;25.20;15.75;;;;;;;12.99;100.00;100812.78;10416317;28;20075;-64
2022/10/20 12:38:19;;;;;;;24.63;16.42;;;;;;;13.27;100.00;100811.28;10417964;28;20536;-65
2022/10/20 12:43:29;;;;;;;22.77;16.35;;;;;;;13.50;100.00;100824.94;10418471;28;20049;-63
2022/10/20 12:48:35;;;;;;;23.88;15.75;;;;;;;13.82;100.00;100811.81;10417668;28;20049;-62
2022/10/20 12:53:38;;;;;;;19.92;14.63;;;;;;;15.06;100.00;100802.88;10418148;28;20073;-65
2022/10/20 12:59:23;;;;;;;20.92;14.15;;;;;;;16.04;100.00;100794.03;10417376;28;20505;-63
2022/10/20 13:04:56;;;;;;;17.52;14.50;;;;;;;15.63;100.00;100806.31;10443534;28;20049;-64
2022/10/20 13:09:58;;;;;;;18.75;14.50;;;;;;;15.22;100.00;100788.78;10458563;28;20437;-63
2022/10/20 13:15:05;;;;;;;;;;;;;;;15.63;100.00;100785.25;10458702;28;20099;-66
2022/10/20 13:20:25;;;;;;;16.23;9.63;;;;;;;15.29;100.00;100774.28;10458058;28;20392;-65
2022/10/20 13:25:39;;;;;;;17.52;11.93;;;;;;;15.56;100.00;100757.66;10458281;28;20045;-64
2022/10/20 13:31:13;;;;;;;21.17;13.02;;;;;;;16.41;100.00;100759.13;10457749;28;20086;-63
2022/10/20 13:36:35;;;;;;;21.85;12.52;;;;;;;16.23;100.00;100745.44;10455043;28;20073;-63
2022/10/20 13:41:48;;;;;;;17.58;12.10;;;;;;;15.67;100.00;100749.09;10457235;28;20397;-63
2022/10/20 13:47:07;;;;;;;17.65;12.75;;;;;;;16.07;100.00;100740.34;10457465;28;20553;-63
2022/10/20 13:52:15;;;;;;;16.00;11.75;;;;;;;16.40;100.00;100752.19;10486358;28;20044;-64
2022/10/20 13:57:27;;;;;;;21.83;13.50;;;;;;;16.41;100.00;100753.84;10498542;28;20059;-63
2022/10/20 14:02:33;;;;;;;17.73;11.98;;;;;;;16.58;100.00;100742.16;10483180;28;20051;-64
2022/10/20 14:07:42;;;;;;;16.63;12.82;;;;;;;16.17;100.00;100740.56;10417174;28;20059;-64
2022/10/20 14:12:43;;;;;;;17.75;12.80;;;;;;;16.42;100.00;100736.28;10414769;28;20049;-64
2022/10/20 14:17:55;;;;;;;21.42;12.20;;;;;;;16.18;100.00;100735.19;10414838;28;20092;-64
2022/10/20 14:23:03;;;;;;;18.05;11.88;;;;;;;16.41;100.00;100721.41;10414689;28;20049;-64
2022/10/20 14:28:06;;;;;;;19.25;11.75;;;;;;;16.49;100.00;100721.72;10414573;28;20053;-63
2022/10/20 14:33:14;;;;;;;18.15;12.32;;;;;;;16.25;100.00;100722.47;10410876;28;20073;-65
2022/10/20 14:38:22;;;;;;;16.23;12.63;;;;;;;16.25;100.00;100717.19;10413508;28;20049;-64
2022/10/20 14:43:35;;;;;;;17.63;12.85;;;;;;;16.11;100.00;100722.59;10413908;28;20059;-65
2022/10/20 14:48:42;;;;;;;18.27;12.75;;;;;;;16.17;100.00;100720.38;10413616;28;20119;-65
2022/10/20 14:53:45;;;;;;;20.17;13.55;;;;;;;16.06;100.00;100713.22;10413503;28;20103;-65
2022/10/20 14:59:02;;;;;;;19.05;13.18;;;;;;;15.77;100.00;100712.50;10413605;28;20050;-66
2022/10/20 15:04:06;;;;;;;19.73;11.73;;;;;;;16.13;100.00;100712.78;10419893;28;20049;-65
2022/10/20 15:09:23;;;;;;;16.33;11.60;;;;;;;16.28;100.00;100697.72;10454025;28;20049;-65
2022/10/20 15:14:24;;;;;;;14.20;10.85;;;;;;;16.26;100.00;100687.31;10452525;28;20080;-65
2022/10/20 15:19:35;;;;;;;18.13;11.70;;;;;;;16.40;100.00;100688.97;10479371;28;20063;-64
2022/10/20 15:24:39;;;;;;;14.65;10.15;;;;;;;16.32;100.00;100697.41;10494435;28;20098;-65
2022/10/20 15:29:48;;;;;;;13.63;10.73;;;;;;;16.34;100.00;100699.94;10493453;28;20546;-65
2022/10/20 15:34:50;;;;;;;14.48;10.23;;;;;;;16.21;100.00;100690.25;10491768;28;20066;-64
2022/10/20 15:39:53;;;;;;;;;;;;;;;16.09;100.00;100696.34;10493920;28;20072;-65
2022/10/20 15:44:54;;;;;;;16.48;12.23;;;;;;;16.00;100.00;100686.44;10493314;28;19951;-65
2022/10/20 15:49:56;;;;;;;;;;;;;;;15.79;100.00;100687.78;10488978;28;20055;-65
2022/10/20 15:54:59;;;;;;;28.52;13.95;;;;;;;15.69;100.00;100684.91;10465661;28;19924;-65
2022/10/20 16:00:00;;;;;;;20.38;14.45;;;;;;;15.49;100.00;100674.84;10465125;28;20436;-64
2022/10/20 16:05:02;;;;;;;19.13;14.75;;;;;;;15.39;100.00;100679.88;10455768;28;20049;-63
2022/10/20 16:10:07;;;;;;;19.77;15.85;;;;;;;15.23;100.00;100677.44;10424104;28;20057;-64
2022/10/20 16:15:10;;;;;;;23.50;16.38;;;;;;;14.99;100.00;100667.56;10424334;28;20045;-65
2022/10/20 16:20:13;;;;;;;24.52;15.60;;;;;;;14.85;100.00;100669.25;10423902;28;20080;-64
2022/10/20 16:25:16;;;;;;;25.35;15.93;;;;;;;14.72;100.00;100668.31;10423691;28;20055;-65
2022/10/20 16:30:18;;;;;;;25.52;16.17;;;;;;;14.67;100.00;100671.22;10423328;28;20551;-64
2022/10/20 16:35:19;;;;;;;;;;;;;;;14.58;100.00;100672.69;10421398;28;20421;-65
2022/10/20 16:40:22;;;;;;;25.02;15.40;;;;;;;14.47;100.00;100668.06;10423457;28;19920;-64
2022/10/20 16:45:24;;;;;;;21.15;15.18;;;;;;;14.49;100.00;100673.22;10423230;28;20053;-64
2022/10/20 16:50:27;;;;;;;20.00;15.60;;;;;;;14.43;100.00;100674.44;10452871;28;20558;-64
2022/10/20 16:55:30;;;;;;;21.40;14.18;;;;;;;14.46;100.00;100678.66;10505903;28;20118;-65
2022/10/20 17:00:31;;;;;;;20.73;14.68;;;;;;;14.40;100.00;100670.22;10503595;28;20060;-63
2022/10/20 17:05:33;;;;;;;;;;;;;;;14.34;100.00;100669.78;10483684;28;20061;-64
2022/10/20 17:10:38;;;;;;;15.07;11.53;;;;;;;14.46;100.00;100663.75;10452355;28;19972;-64
2022/10/20 17:15:39;;;;;;;23.98;15.25;;;;;;;14.31;100.00;100670.81;10457762;28;20063;-64
2022/10/20 17:20:41;;;;;;;22.92;15.90;;;;;;;14.14;100.00;100664.78;10475511;28;20044;-64
2022/10/20 17:25:44;;;;;;;32.08;14.77;;;;;;;13.93;100.00;100660.84;10498964;28;20556;-64
2022/10/20 17:30:48;;;;;;;31.02;15.18;;;;;;;13.81;100.00;100654.53;10497877;28;20595;-65
2022/10/20 17:35:49;;;;;;;24.83;15.88;;;;;;;13.50;100.00;100654.56;10495881;28;20063;-64
2022/10/20 17:40:54;;;;;;;38.60;16.17;;;;;;;13.39;100.00;100658.59;10497531;28;20053;-64
2022/10/20 17:45:57;;;;;;;29.70;16.38;;;;;;;13.46;100.00;100664.34;10497264;28;20169;-65
2022/10/20 17:51:01;;;;;;;28.70;16.58;;;;;;;13.46;100.00;100658.25;10477586;28;20045;-71
2022/10/20 17:56:10;;;;;;;25.88;17.70;;;;;;;13.51;100.00;100645.75;10455688;28;20048;-70
2022/10/20 18:01:15;;;;;;;31.30;17.23;;;;;;;13.44;100.00;100628.69;10455812;28;20044;-69
2022/10/20 18:06:21;;;;;;;30.35;16.75;;;;;;;13.46;100.00;100629.44;10449062;28;20095;-70
2022/10/20 18:11:27;;;;;;;25.75;15.13;;;;;;;13.51;100.00;100636.13;10418565;28;20057;-71
2022/10/20 18:16:34;;;;;;;24.85;15.43;;;;;;;13.39;100.00;100627.16;10413419;28;20103;-71
2022/10/20 18:21:36;;;;;;;45.20;16.48;;;;;;;13.32;100.00;100636.31;10412959;28;20068;-72
2022/10/20 18:26:39;;;;;;;25.98;15.40;;;;;;;13.48;100.00;100645.91;10446809;28;20109;-72
2022/10/20 18:31:44;;;;;;;24.30;14.88;;;;;;;13.44;100.00;100639.16;10495246;28;20052;-72
2022/10/20 18:36:48;;;;;;;25.25;14.38;;;;;;;13.79;100.00;100652.00;10492676;28;20411;-65
2022/10/20 18:41:53;;;;;;;21.80;13.75;;;;;;;13.58;100.00;100641.84;10494868;28;20436;-65
2022/10/20 18:46:57;;;;;;;23.52;14.23;;;;;;;13.46;100.00;100632.03;10494802;28;20518;-64
2022/10/20 18:51:58;;;;;;;22.00;12.85;;;;;;;13.58;100.00;100641.03;10494285;28;20135;-65
2022/10/20 18:57:01;;;;;;;28.73;16.02;;;;;;;13.52;100.00;100631.72;10493995;28;20048;-64
2022/10/20 19:02:03;;;;;;;22.40;14.85;;;;;;;13.42;100.00;100631.38;10494044;28;20110;-64
2022/10/20 19:07:05;;;;;;;26.88;15.85;;;;;;;13.54;100.00;100637.72;10481603;28;20142;-65
2022/10/20 19:12:08;;;;;;;27.30;14.52;;;;;;;13.60;100.00;100624.25;10451625;28;20111;-64
2022/10/20 19:17:09;;;;;;;31.38;15.40;;;;;;;13.50;100.00;100620.47;10453476;28;20115;-64
2022/10/20 19:22:11;;;;;;;20.63;14.57;;;;;;;13.34;100.00;100617.88;10453966;28;20053;-65
2022/10/20 19:27:15;;;;;;;31.75;16.73;;;;;;;13.28;100.00;100608.59;10452844;28;20049;-67
2022/10/20 19:32:17;;;;;;;18.92;14.15;;;;;;;13.33;100.00;100601.31;10453345;28;20052;-64
2022/10/20 19:37:20;;;;;;;30.20;15.52;;;;;;;13.29;100.00;100588.47;10451218;28;20059;-65
2022/10/20 19:42:23;;;;;;;26.38;15.15;;;;;;;13.22;100.00;100561.78;10453624;28;20087;-64
2022/10/20 19:47:25;;;;;;;33.17;15.75;;;;;;;12.97;100.00;100565.81;10453711;28;20083;-64
2022/10/20 19:52:28;;;;;;;29.17;15.43;;;;;;;12.97;100.00;100548.31;10453362;28;20103;-64
2022/10/20 19:57:31;;;;;;;38.17;16.63;;;;;;;12.77;100.00;100546.84;10453432;28;20416;-65
2022/10/20 20:02:36;;;;;;;23.65;15.82;;;;;;;12.83;100.00;100549.09;10453484;28;20053;-65
2022/10/20 20:07:38;;;;;;;35.88;16.63;;;;;;;12.73;100.00;100555.81;10451345;28;20045;-65
2022/10/20 20:12:41;;;;;;;29.33;17.70;;;;;;;12.56;100.00;100543.66;10452684;28;20079;-64
2022/10/20 20:17:43;;;;;;;27.65;15.90;;;;;;;12.59;100.00;100552.16;10452748;28;20417;-65
2022/10/20 20:22:46;;;;;;;26.60;17.33;;;;;;;12.36;100.00;100554.28;10453530;28;20099;-63
2022/10/20 20:27:49;;;;;;;23.30;16.55;;;;;;;12.44;100.00;100553.03;10454453;28;20083;-63
2022/10/20 20:32:52;;;;;;;28.33;17.45;;;;;;;12.27;100.00;100548.69;10452395;28;20459;-63
2022/10/20 20:37:54;;;;;;;31.13;17.63;;;;;;;12.31;100.00;100545.84;10458501;28;20102;-63
2022/10/20 20:42:57;;;;;;;32.25;17.80;;;;;;;12.29;100.00;100563.41;10461892;28;20073;-63
2022/10/20 20:47:58;;;;;;;29.33;17.75;;;;;;;12.33;100.00;100564.94;10461538;28;20057;-64
2022/10/20 20:53:01;;;;;;;36.80;18.48;;;;;;;12.18;100.00;100566.59;10461330;28;20084;-64
2022/10/20 20:58:04;;;;;;;32.35;17.98;;;;;;;12.38;100.00;100561.22;10461041;28;20052;-64
2022/10/20 21:03:07;;;;;;;36.50;19.05;;;;;;;12.24;100.00;100565.41;10458392;28;20083;-65
2022/10/20 21:08:09;;;;;;;30.45;18.20;;;;;;;12.32;100.00;100568.47;10461150;28;20106;-64
2022/10/20 21:13:11;;;;;;;;;;;;;;;12.22;100.00;100567.28;10467924;28;20130;-64
2022/10/20 21:18:13;;;;;;;37.78;18.52;;;;;;;12.33;100.00;100558.84;10501699;28;20464;-63
2022/10/20 21:23:16;;;;;;;45.80;18.95;;;;;;;12.19;100.00;100564.81;10501931;28;20098;-65
2022/10/20 21:28:19;;;;;;;31.65;18.70;;;;;;;12.36;100.00;100561.31;10501699;28;20052;-64
2022/10/20 21:33:22;;;;;;;27.92;17.95;;;;;;;12.21;100.00;100560.34;10499374;28;20068;-65
2022/10/20 21:38:24;;;;;;;45.78;18.02;;;;;;;12.27;100.00;100565.25;10500906;28;20062;-65
2022/10/20 21:43:29;;;;;;;44.10;18.48;;;;;;;12.17;100.00;100574.50;10501342;28;20083;-64
2022/10/20 21:48:31;;;;;;;36.28;18.38;;;;;;;12.39;100.00;100568.13;10500153;28;20500;-64
2022/10/20 21:53:33;;;;;;;19.05;12.52;;;;;;;12.39;100.00;100583.84;10500328;28;20464;-65
2022/10/20 21:58:36;;;;;;;31.67;17.70;;;;;;;12.37;100.00;100581.31;10500556;28;20056;-64
2022/10/20 22:03:40;;;;;;;32.60;17.75;;;;;;;12.25;100.00;100582.78;10497585;28;20102;-64
2022/10/20 22:08:45;;;;;;;28.48;17.08;;;;;;;12.44;100.00;100568.72;10500221;28;20110;-64
2022/10/20 22:13:50;;;;;;;33.08;18.08;;;;;;;12.41;100.00;100558.41;10499187;28;20084;-64
2022/10/20 22:18:56;;;;;;;33.95;18.77;;;;;;;12.41;100.00;100558.41;10499165;28;20452;-64
2022/10/20 22:24:00;;;;;;;32.63;17.88;;;;;;;12.49;100.00;100548.41;10499089;28;20044;-64
2022/10/20 22:29:05;;;;;;;31.77;18.83;;;;;;;12.47;100.00;100539.78;10498744;28;20051;-64
2022/10/20 22:34:09;;;;;;;30.27;16.15;;;;;;;12.69;100.00;100543.81;10496566;28;20055;-64
2022/10/20 22:39:12;;;;;;;33.38;16.90;;;;;;;12.66;100.00;100523.88;10498035;28;20473;-64
2022/10/20 22:44:15;;;;;;;31.73;17.30;;;;;;;12.58;100.00;100516.47;10497969;28;20113;-65
2022/10/20 22:49:17;;;;;;;33.08;17.60;;;;;;;12.59;100.00;100522.56;10497911;28;20079;-65
2022/10/20 22:54:18;;;;;;;29.85;17.92;;;;;;;12.60;100.00;100514.59;10497665;28;20079;-64